sensor_id;sensor_type;location;lat;lon;timestamp;pressure;altitude;pressure_sealevel;temperature;humidity
71109;BME280;59614;51.012;-1.648;2023-04-27T00:00:32;100856.25;;;7.52;72.95
71109;BME280;59614;51.012;-1.648;2023-04-27T00:03:00;100854.50;;;7.54;72.99
71109;BME280;59614;51.012;-1.648;2023-04-27T00:05:30;100861.47;;;7.44;73.09
71109;BME280;59614;51.012;-1.648;2023-04-27T00:07:56;100851.00;;;7.56;73.06
71109;BME280;59614;51.012;-1.648;2023-04-27T00:10:21;100846.56;;;7.34;73.38
71109;BME280;59614;51.012;-1.648;2023-04-27T00:12:47;100854.47;;;7.35;73.89
71109;BME280;59614;51.012;-1.648;2023-04-27T00:15:12;100844.84;;;7.45;73.48
71109;BME280;59614;51.012;-1.648;2023-04-27T00:17:37;100839.59;;;7.39;73.50
71109;BME280;59614;51.012;-1.648;2023-04-27T00:20:03;100832.63;;;7.50;73.56
71109;BME280;59614;51.012;-1.648;2023-04-27T00:22:30;100824.72;;;7.52;73.46
71109;BME280;59614;51.012;-1.648;2023-04-27T00:24:55;100827.31;;;7.39;74.29
71109;BME280;59614;51.012;-1.648;2023-04-27T00:27:21;100824.78;;;7.64;73.98
71109;BME280;59614;51.012;-1.648;2023-04-27T00:29:46;100830.00;;;7.61;74.17
71109;BME280;59614;51.012;-1.648;2023-04-27T00:32:11;100821.22;;;7.47;74.21
71109;BME280;59614;51.012;-1.648;2023-04-27T00:34:37;100823.91;;;7.70;74.50
71109;BME280;59614;51.012;-1.648;2023-04-27T00:37:03;100818.63;;;7.57;74.21
71109;BME280;59614;51.012;-1.648;2023-04-27T00:39:29;100819.50;;;7.64;73.54
71109;BME280;59614;51.012;-1.648;2023-04-27T00:41:55;100824.78;;;7.69;74.05
71109;BME280;59614;51.012;-1.648;2023-04-27T00:44:24;100821.28;;;7.68;73.18
71109;BME280;59614;51.012;-1.648;2023-04-27T00:46:51;100819.56;;;7.89;73.03
71109;BME280;59614;51.012;-1.648;2023-04-27T00:49:18;100819.56;;;8.11;71.76
71109;BME280;59614;51.012;-1.648;2023-04-27T00:51:43;100820.44;;;7.99;72.61
71109;BME280;59614;51.012;-1.648;2023-04-27T00:54:09;100812.56;;;7.96;71.63
71109;BME280;59614;51.012;-1.648;2023-04-27T00:56:35;100809.91;;;7.89;72.10
71109;BME280;59614;51.012;-1.648;2023-04-27T00:59:01;100809.91;;;8.02;72.10
71109;BME280;59614;51.012;-1.648;2023-04-27T01:01:27;100808.16;;;7.92;72.27
71109;BME280;59614;51.012;-1.648;2023-04-27T01:03:53;100809.03;;;7.86;73.31
71109;BME280;59614;51.012;-1.648;2023-04-27T01:06:19;100799.38;;;7.80;73.40
71109;BME280;59614;51.012;-1.648;2023-04-27T01:08:44;100799.41;;;7.83;73.85
71109;BME280;59614;51.012;-1.648;2023-04-27T01:11:11;100793.28;;;7.89;73.80
71109;BME280;59614;51.012;-1.648;2023-04-27T01:13:36;100795.00;;;7.84;74.46
71109;BME280;59614;51.012;-1.648;2023-04-27T01:16:02;100796.75;;;7.76;74.80
71109;BME280;59614;51.012;-1.648;2023-04-27T01:18:27;100800.25;;;7.79;74.58
71109;BME280;59614;51.012;-1.648;2023-04-27T01:20:52;100802.91;;;8.01;74.25
71109;BME280;59614;51.012;-1.648;2023-04-27T01:23:18;100806.41;;;8.03;73.87
71109;BME280;59614;51.012;-1.648;2023-04-27T01:25:43;100808.16;;;7.96;73.37
71109;BME280;59614;51.012;-1.648;2023-04-27T01:28:09;100805.53;;;7.99;73.76
71109;BME280;59614;51.012;-1.648;2023-04-27T01:30:34;100799.41;;;7.96;73.65
71109;BME280;59614;51.012;-1.648;2023-04-27T01:33:00;100806.41;;;8.12;73.27
71109;BME280;59614;51.012;-1.648;2023-04-27T01:35:25;100812.56;;;8.13;73.39
71109;BME280;59614;51.012;-1.648;2023-04-27T01:37:50;100812.56;;;8.10;73.51
71109;BME280;59614;51.012;-1.648;2023-04-27T01:40:16;100816.94;;;8.11;73.59
71109;BME280;59614;51.012;-1.648;2023-04-27T01:42:41;100813.44;;;8.32;73.49
71109;BME280;59614;51.012;-1.648;2023-04-27T01:45:07;100815.19;;;8.16;74.48
71109;BME280;59614;51.012;-1.648;2023-04-27T01:47:33;100815.16;;;8.02;74.16
71109;BME280;59614;51.012;-1.648;2023-04-27T01:49:58;100818.69;;;8.10;74.19
71109;BME280;59614;51.012;-1.648;2023-04-27T01:52:24;100814.28;;;8.20;74.62
71109;BME280;59614;51.012;-1.648;2023-04-27T01:54:50;100814.31;;;7.98;73.81
71109;BME280;59614;51.012;-1.648;2023-04-27T01:57:15;100815.19;;;7.99;74.72
71109;BME280;59614;51.012;-1.648;2023-04-27T01:59:41;100814.28;;;8.17;74.35
71109;BME280;59614;51.012;-1.648;2023-04-27T02:02:07;100818.69;;;8.15;74.61
71109;BME280;59614;51.012;-1.648;2023-04-27T02:04:32;100820.44;;;8.19;74.33
71109;BME280;59614;51.012;-1.648;2023-04-27T02:06:58;100826.56;;;8.16;75.45
71109;BME280;59614;51.012;-1.648;2023-04-27T02:09:23;100821.31;;;8.02;75.31
71109;BME280;59614;51.012;-1.648;2023-04-27T02:11:48;100815.19;;;8.27;74.85
71109;BME280;59614;51.012;-1.648;2023-04-27T02:14:14;100806.38;;;8.34;73.84
71109;BME280;59614;51.012;-1.648;2023-04-27T02:16:39;100808.19;;;8.15;75.14
71109;BME280;59614;51.012;-1.648;2023-04-27T02:19:05;100801.16;;;8.06;75.37
71109;BME280;59614;51.012;-1.648;2023-04-27T02:21:30;100797.66;;;7.95;76.51
71109;BME280;59614;51.012;-1.648;2023-04-27T02:23:56;100794.16;;;8.03;76.58
71109;BME280;59614;51.012;-1.648;2023-04-27T02:26:22;100790.66;;;8.01;76.73
71109;BME280;59614;51.012;-1.648;2023-04-27T02:28:53;100788.88;;;8.14;76.36
71109;BME280;59614;51.012;-1.648;2023-04-27T02:31:19;100787.13;;;8.06;76.63
71109;BME280;59614;51.012;-1.648;2023-04-27T02:33:45;100792.38;;;8.13;77.27
71109;BME280;59614;51.012;-1.648;2023-04-27T02:36:10;100781.88;;;8.15;77.12
71109;BME280;59614;51.012;-1.648;2023-04-27T02:38:35;100786.25;;;8.30;76.23
71109;BME280;59614;51.012;-1.648;2023-04-27T02:41:01;100774.84;;;8.12;76.95
71109;BME280;59614;51.012;-1.648;2023-04-27T02:43:26;100769.63;;;8.09;77.86
71109;BME280;59614;51.012;-1.648;2023-04-27T02:45:52;100764.34;;;7.91;78.46
71109;BME280;59614;51.012;-1.648;2023-04-27T02:48:17;100760.84;;;7.82;78.07
71109;BME280;59614;51.012;-1.648;2023-04-27T02:50:43;100768.75;;;7.98;79.08
71109;BME280;59614;51.012;-1.648;2023-04-27T02:53:10;100762.59;;;7.85;79.33
71109;BME280;59614;51.012;-1.648;2023-04-27T02:55:36;100760.00;;;7.86;79.62
71109;BME280;59614;51.012;-1.648;2023-04-27T02:58:02;100752.97;;;7.73;79.27
71109;BME280;59614;51.012;-1.648;2023-04-27T03:00:28;100754.72;;;7.96;78.97
71109;BME280;59614;51.012;-1.648;2023-04-27T03:02:53;100748.59;;;7.78;79.63
71109;BME280;59614;51.012;-1.648;2023-04-27T03:05:18;100747.72;;;7.68;80.60
71109;BME280;59614;51.012;-1.648;2023-04-27T03:07:44;100745.06;;;7.67;80.96
71109;BME280;59614;51.012;-1.648;2023-04-27T03:10:09;100744.22;;;7.83;81.24
71109;BME280;59614;51.012;-1.648;2023-04-27T03:12:35;100731.94;;;7.56;81.27
71109;BME280;59614;51.012;-1.648;2023-04-27T03:15:01;100739.84;;;7.59;82.17
71109;BME280;59614;51.012;-1.648;2023-04-27T03:17:27;100737.19;;;7.75;81.88
71109;BME280;59614;51.012;-1.648;2023-04-27T03:19:52;100731.09;;;7.74;81.88
71109;BME280;59614;51.012;-1.648;2023-04-27T03:22:19;100731.06;;;7.83;82.01
71109;BME280;59614;51.012;-1.648;2023-04-27T03:24:44;100733.69;;;7.97;81.73
71109;BME280;59614;51.012;-1.648;2023-04-27T03:27:10;100727.56;;;7.94;81.47
71109;BME280;59614;51.012;-1.648;2023-04-27T03:29:35;100723.19;;;7.86;81.99
71109;BME280;59614;51.012;-1.648;2023-04-27T03:32:02;100731.09;;;7.99;82.77
71109;BME280;59614;51.012;-1.648;2023-04-27T03:34:28;100717.06;;;7.94;82.80
71109;BME280;59614;51.012;-1.648;2023-04-27T03:36:54;100717.03;;;8.06;82.85
71109;BME280;59614;51.012;-1.648;2023-04-27T03:39:19;100717.03;;;7.95;82.49
71109;BME280;59614;51.012;-1.648;2023-04-27T03:41:45;100718.78;;;8.04;82.94
71109;BME280;59614;51.012;-1.648;2023-04-27T03:44:10;100717.06;;;7.94;83.28
71109;BME280;59614;51.012;-1.648;2023-04-27T03:46:36;100713.53;;;7.88;84.31
71109;BME280;59614;51.012;-1.648;2023-04-27T03:49:01;100706.53;;;8.00;84.34
71109;BME280;59614;51.012;-1.648;2023-04-27T03:51:27;100709.16;;;8.00;84.76
71109;BME280;59614;51.012;-1.648;2023-04-27T03:53:52;100703.00;;;8.19;84.52
71109;BME280;59614;51.012;-1.648;2023-04-27T03:56:17;100698.66;;;7.92;85.72
71109;BME280;59614;51.012;-1.648;2023-04-27T03:58:43;100699.53;;;8.08;85.52
71109;BME280;59614;51.012;-1.648;2023-04-27T04:01:08;100705.66;;;7.96;86.22
71109;BME280;59614;51.012;-1.648;2023-04-27T04:03:35;100703.03;;;7.98;86.50
71109;BME280;59614;51.012;-1.648;2023-04-27T04:06:00;100700.41;;;8.10;86.75
71109;BME280;59614;51.012;-1.648;2023-04-27T04:08:28;100695.13;;;8.07;86.36
71109;BME280;59614;51.012;-1.648;2023-04-27T04:10:55;100690.72;;;8.17;87.18
71109;BME280;59614;51.012;-1.648;2023-04-27T04:13:20;100681.94;;;8.29;86.59
71109;BME280;59614;51.012;-1.648;2023-04-27T04:15:46;100678.47;;;8.14;87.42
71109;BME280;59614;51.012;-1.648;2023-04-27T04:18:11;100668.78;;;8.29;87.12
71109;BME280;59614;51.012;-1.648;2023-04-27T04:20:37;100670.56;;;8.22;87.73
71109;BME280;59614;51.012;-1.648;2023-04-27T04:23:02;100676.69;;;8.24;88.28
71109;BME280;59614;51.012;-1.648;2023-04-27T04:25:27;100674.06;;;8.23;88.16
71109;BME280;59614;51.012;-1.648;2023-04-27T04:27:53;100687.16;;;8.35;88.07
71109;BME280;59614;51.012;-1.648;2023-04-27T04:30:18;100678.44;;;8.24;89.16
71109;BME280;59614;51.012;-1.648;2023-04-27T04:32:44;100683.69;;;8.24;88.82
71109;BME280;59614;51.012;-1.648;2023-04-27T04:35:09;100677.50;;;8.42;88.96
71109;BME280;59614;51.012;-1.648;2023-04-27T04:37:35;100666.13;;;8.50;88.79
71109;BME280;59614;51.012;-1.648;2023-04-27T04:40:05;100680.16;;;8.49;88.83
71109;BME280;59614;51.012;-1.648;2023-04-27T04:42:33;100676.63;;;8.40;88.85
71109;BME280;59614;51.012;-1.648;2023-04-27T04:44:59;100676.63;;;8.50;89.59
71109;BME280;59614;51.012;-1.648;2023-04-27T04:47:25;100670.50;;;8.52;89.17
71109;BME280;59614;51.012;-1.648;2023-04-27T04:49:51;100659.94;;;8.59;89.19
71109;BME280;59614;51.012;-1.648;2023-04-27T04:52:16;100654.69;;;8.59;89.08
71109;BME280;59614;51.012;-1.648;2023-04-27T04:54:42;100665.22;;;8.45;89.59
71109;BME280;59614;51.012;-1.648;2023-04-27T04:57:07;100679.28;;;8.33;90.29
71109;BME280;59614;51.012;-1.648;2023-04-27T04:59:32;100679.25;;;8.40;90.98
71109;BME280;59614;51.012;-1.648;2023-04-27T05:01:59;100686.25;;;8.61;90.27
71109;BME280;59614;51.012;-1.648;2023-04-27T05:04:24;100684.50;;;8.57;90.75
71109;BME280;59614;51.012;-1.648;2023-04-27T05:06:50;100680.06;;;8.68;89.95
71109;BME280;59614;51.012;-1.648;2023-04-27T05:09:17;100677.44;;;8.70;89.76
71109;BME280;59614;51.012;-1.648;2023-04-27T05:11:42;100668.66;;;8.72;90.38
71109;BME280;59614;51.012;-1.648;2023-04-27T05:14:07;100669.53;;;8.68;90.54
71109;BME280;59614;51.012;-1.648;2023-04-27T05:16:33;100655.53;;;8.66;90.97
71109;BME280;59614;51.012;-1.648;2023-04-27T05:18:58;100657.22;;;8.76;90.95
71109;BME280;59614;51.012;-1.648;2023-04-27T05:21:24;100656.34;;;8.77;90.95
71109;BME280;59614;51.012;-1.648;2023-04-27T05:23:49;100660.69;;;8.85;90.31
71109;BME280;59614;51.012;-1.648;2023-04-27T05:26:16;100663.28;;;8.89;90.64
71109;BME280;59614;51.012;-1.648;2023-04-27T05:28:42;100667.72;;;8.79;90.95
71109;BME280;59614;51.012;-1.648;2023-04-27T05:31:07;100685.19;;;8.93;90.96
71109;BME280;59614;51.012;-1.648;2023-04-27T05:33:33;100683.31;;;9.17;89.96
71109;BME280;59614;51.012;-1.648;2023-04-27T05:35:58;100698.31;;;9.02;90.18
71109;BME280;59614;51.012;-1.648;2023-04-27T05:38:24;100676.28;;;9.19;90.27
71109;BME280;59614;51.012;-1.648;2023-04-27T05:40:54;100675.47;;;9.10;89.77
71109;BME280;59614;51.012;-1.648;2023-04-27T05:43:20;100673.75;;;9.02;90.92
71109;BME280;59614;51.012;-1.648;2023-04-27T05:45:45;100657.94;;;9.03;90.82
71109;BME280;59614;51.012;-1.648;2023-04-27T05:48:11;100657.84;;;9.22;90.41
71109;BME280;59614;51.012;-1.648;2023-04-27T05:50:36;100660.41;;;9.31;89.88
71109;BME280;59614;51.012;-1.648;2023-04-27T05:53:01;100671.75;;;9.36;89.11
71109;BME280;59614;51.012;-1.648;2023-04-27T05:55:30;100679.63;;;9.42;89.59
71109;BME280;59614;51.012;-1.648;2023-04-27T05:57:55;100673.47;;;9.43;88.20
71109;BME280;59614;51.012;-1.648;2023-04-27T06:00:20;100664.72;;;9.35;87.49
71109;BME280;59614;51.012;-1.648;2023-04-27T06:02:47;100665.56;;;9.45;88.18
71109;BME280;59614;51.012;-1.648;2023-04-27T06:05:12;100657.66;;;9.43;88.13
71109;BME280;59614;51.012;-1.648;2023-04-27T06:07:38;100651.44;;;9.54;87.60
71109;BME280;59614;51.012;-1.648;2023-04-27T06:10:04;100649.59;;;9.62;87.35
71109;BME280;59614;51.012;-1.648;2023-04-27T06:12:30;100651.28;;;9.69;87.00
71109;BME280;59614;51.012;-1.648;2023-04-27T06:14:55;100654.75;;;9.76;86.99
71109;BME280;59614;51.012;-1.648;2023-04-27T06:17:21;100647.84;;;9.64;86.93
71109;BME280;59614;51.012;-1.648;2023-04-27T06:19:46;100642.56;;;9.64;86.78
71109;BME280;59614;51.012;-1.648;2023-04-27T06:22:12;100650.56;;;9.55;86.53
71109;BME280;59614;51.012;-1.648;2023-04-27T06:24:37;100660.22;;;9.53;87.81
71109;BME280;59614;51.012;-1.648;2023-04-27T06:27:03;100647.00;;;9.57;86.55
71109;BME280;59614;51.012;-1.648;2023-04-27T06:29:28;100652.22;;;9.65;87.03
71109;BME280;59614;51.012;-1.648;2023-04-27T06:31:54;100660.03;;;9.74;85.92
71109;BME280;59614;51.012;-1.648;2023-04-27T06:34:19;100662.72;;;9.70;86.08
71109;BME280;59614;51.012;-1.648;2023-04-27T06:36:45;100661.81;;;9.69;86.83
71109;BME280;59614;51.012;-1.648;2023-04-27T06:39:10;100657.47;;;9.64;86.75
71109;BME280;59614;51.012;-1.648;2023-04-27T06:41:35;100649.47;;;9.78;87.05
71109;BME280;59614;51.012;-1.648;2023-04-27T06:44:01;100655.69;;;9.69;86.58
71109;BME280;59614;51.012;-1.648;2023-04-27T06:46:26;100652.16;;;9.68;86.92
71109;BME280;59614;51.012;-1.648;2023-04-27T06:48:52;100661.72;;;9.82;86.69
71109;BME280;59614;51.012;-1.648;2023-04-27T06:51:17;100670.69;;;9.59;87.33
71109;BME280;59614;51.012;-1.648;2023-04-27T06:53:43;100678.56;;;9.64;86.86
71109;BME280;59614;51.012;-1.648;2023-04-27T06:56:10;100673.41;;;9.53;86.72
71109;BME280;59614;51.012;-1.648;2023-04-27T06:58:36;100676.81;;;9.64;87.04
71109;BME280;59614;51.012;-1.648;2023-04-27T07:01:02;100665.41;;;9.62;86.75
71109;BME280;59614;51.012;-1.648;2023-04-27T07:03:28;100675.88;;;9.70;86.45
71109;BME280;59614;51.012;-1.648;2023-04-27T07:05:53;100682.84;;;9.79;87.27
71109;BME280;59614;51.012;-1.648;2023-04-27T07:08:20;100685.66;;;9.57;87.26
71109;BME280;59614;51.012;-1.648;2023-04-27T07:10:46;100689.81;;;9.83;86.45
71109;BME280;59614;51.012;-1.648;2023-04-27T07:13:11;100687.88;;;10.05;86.20
71109;BME280;59614;51.012;-1.648;2023-04-27T07:15:37;100691.50;;;9.95;85.38
71109;BME280;59614;51.012;-1.648;2023-04-27T07:18:02;100697.47;;;10.11;84.51
71109;BME280;59614;51.012;-1.648;2023-04-27T07:20:28;100692.25;;;10.04;85.15
71109;BME280;59614;51.012;-1.648;2023-04-27T07:22:53;100696.84;;;9.87;85.47
71109;BME280;59614;51.012;-1.648;2023-04-27T07:25:19;100682.53;;;10.13;84.63
71109;BME280;59614;51.012;-1.648;2023-04-27T07:27:45;100659.72;;;10.07;84.72
71109;BME280;59614;51.012;-1.648;2023-04-27T07:30:11;100649.97;;;10.15;84.79
71109;BME280;59614;51.012;-1.648;2023-04-27T07:32:41;100656.78;;;10.38;84.28
71109;BME280;59614;51.012;-1.648;2023-04-27T07:35:07;100657.72;;;10.26;83.55
71109;BME280;59614;51.012;-1.648;2023-04-27T07:37:34;100651.56;;;10.29;83.65
71109;BME280;59614;51.012;-1.648;2023-04-27T07:40:02;100659.47;;;10.27;83.72
71109;BME280;59614;51.012;-1.648;2023-04-27T07:42:29;100649.91;;;10.20;84.84
71109;BME280;59614;51.012;-1.648;2023-04-27T07:44:55;100622.63;;;10.21;83.99
71109;BME280;59614;51.012;-1.648;2023-04-27T07:47:21;100628.72;;;10.28;83.22
71109;BME280;59614;51.012;-1.648;2023-04-27T07:49:47;100616.84;;;10.64;82.78
71109;BME280;59614;51.012;-1.648;2023-04-27T07:52:12;100630.38;;;10.35;81.96
71109;BME280;59614;51.012;-1.648;2023-04-27T07:54:39;100627.72;;;10.36;81.35
71109;BME280;59614;51.012;-1.648;2023-04-27T07:57:08;100629.13;;;10.69;81.62
71109;BME280;59614;51.012;-1.648;2023-04-27T07:59:34;100640.03;;;10.38;81.55
71109;BME280;59614;51.012;-1.648;2023-04-27T08:02:00;100642.84;;;10.22;81.25
71109;BME280;59614;51.012;-1.648;2023-04-27T08:04:25;100632.16;;;10.33;82.32
71109;BME280;59614;51.012;-1.648;2023-04-27T08:06:51;100630.41;;;10.32;81.22
71109;BME280;59614;51.012;-1.648;2023-04-27T08:09:16;100640.34;;;10.10;82.79
71109;BME280;59614;51.012;-1.648;2023-04-27T08:11:41;100639.22;;;10.32;82.19
71109;BME280;59614;51.012;-1.648;2023-04-27T08:14:07;100627.13;;;10.11;82.14
71109;BME280;59614;51.012;-1.648;2023-04-27T08:16:39;100619.06;;;10.25;81.89
71109;BME280;59614;51.012;-1.648;2023-04-27T08:19:04;100636.47;;;10.45;81.11
71109;BME280;59614;51.012;-1.648;2023-04-27T08:21:30;100627.59;;;10.50;81.50
71109;BME280;59614;51.012;-1.648;2023-04-27T08:23:57;100617.91;;;10.51;81.16
71109;BME280;59614;51.012;-1.648;2023-04-27T08:26:22;100632.00;;;10.48;81.22
71109;BME280;59614;51.012;-1.648;2023-04-27T08:28:48;100616.09;;;10.55;81.27
71109;BME280;59614;51.012;-1.648;2023-04-27T08:31:14;100622.53;;;10.30;81.66
71109;BME280;59614;51.012;-1.648;2023-04-27T08:33:40;100612.78;;;10.40;81.49
71109;BME280;59614;51.012;-1.648;2023-04-27T08:36:06;100624.25;;;10.34;82.25
71109;BME280;59614;51.012;-1.648;2023-04-27T08:38:33;100619.31;;;10.03;82.95
71109;BME280;59614;51.012;-1.648;2023-04-27T08:40:59;100608.97;;;10.61;81.41
71109;BME280;59614;51.012;-1.648;2023-04-27T08:43:24;100614.44;;;10.47;81.48
71109;BME280;59614;51.012;-1.648;2023-04-27T08:45:50;100610.53;;;10.75;80.75
71109;BME280;59614;51.012;-1.648;2023-04-27T08:48:17;100605.97;;;10.86;79.83
71109;BME280;59614;51.012;-1.648;2023-04-27T08:50:43;100605.06;;;10.89;78.91
71109;BME280;59614;51.012;-1.648;2023-04-27T08:53:17;100605.16;;;10.82;80.62
71109;BME280;59614;51.012;-1.648;2023-04-27T08:55:42;100608.38;;;10.38;81.61
71109;BME280;59614;51.012;-1.648;2023-04-27T08:58:08;100598.34;;;10.68;80.84
71109;BME280;59614;51.012;-1.648;2023-04-27T09:00:42;100598.16;;;10.78;80.05
71109;BME280;59614;51.012;-1.648;2023-04-27T09:03:26;100600.50;;;10.99;79.78
71109;BME280;59614;51.012;-1.648;2023-04-27T09:05:51;100592.53;;;11.03;79.30
71109;BME280;59614;51.012;-1.648;2023-04-27T09:08:17;100586.72;;;11.34;79.02
71109;BME280;59614;51.012;-1.648;2023-04-27T09:10:46;100580.66;;;11.27;79.01
71109;BME280;59614;51.012;-1.648;2023-04-27T09:13:13;100580.88;;;11.15;78.99
71109;BME280;59614;51.012;-1.648;2023-04-27T09:15:42;100582.81;;;11.04;79.58
71109;BME280;59614;51.012;-1.648;2023-04-27T09:18:14;100578.66;;;11.42;78.13
71109;BME280;59614;51.012;-1.648;2023-04-27T09:20:48;100579.41;;;11.52;78.76
71109;BME280;59614;51.012;-1.648;2023-04-27T09:23:30;100574.44;;;11.32;78.16
71109;BME280;59614;51.012;-1.648;2023-04-27T09:25:58;100570.41;;;11.62;78.36
71109;BME280;59614;51.012;-1.648;2023-04-27T09:28:25;100559.22;;;11.46;77.04
71109;BME280;59614;51.012;-1.648;2023-04-27T09:30:55;100575.53;;;11.20;79.15
71109;BME280;59614;51.012;-1.648;2023-04-27T09:33:31;100567.94;;;11.51;79.21
71109;BME280;59614;51.012;-1.648;2023-04-27T09:35:59;100577.22;;;11.25;79.72
71109;BME280;59614;51.012;-1.648;2023-04-27T09:38:25;100571.38;;;11.55;78.84
71109;BME280;59614;51.012;-1.648;2023-04-27T09:40:52;100564.25;;;11.60;78.41
71109;BME280;59614;51.012;-1.648;2023-04-27T09:43:18;100547.53;;;11.58;78.92
71109;BME280;59614;51.012;-1.648;2023-04-27T09:45:44;100554.03;;;11.40;78.89
71109;BME280;59614;51.012;-1.648;2023-04-27T09:48:10;100552.19;;;11.45;79.35
71109;BME280;59614;51.012;-1.648;2023-04-27T09:50:37;100543.75;;;11.24;79.65
71109;BME280;59614;51.012;-1.648;2023-04-27T09:53:15;100536.31;;;11.47;79.15
71109;BME280;59614;51.012;-1.648;2023-04-27T10:06:54;100542.31;;;11.55;80.46
71109;BME280;59614;51.012;-1.648;2023-04-27T10:09:22;100540.22;;;11.25;81.36
71109;BME280;59614;51.012;-1.648;2023-04-27T10:11:48;100536.03;;;11.12;81.29
71109;BME280;59614;51.012;-1.648;2023-04-27T10:14:20;100523.31;;;11.34;81.43
71109;BME280;59614;51.012;-1.648;2023-04-27T10:16:55;100525.47;;;11.61;79.99
71109;BME280;59614;51.012;-1.648;2023-04-27T10:19:22;100525.16;;;11.76;78.78
71109;BME280;59614;51.012;-1.648;2023-04-27T10:21:56;100514.78;;;11.67;80.25
71109;BME280;59614;51.012;-1.648;2023-04-27T10:24:40;100523.03;;;11.50;80.14
71109;BME280;59614;51.012;-1.648;2023-04-27T10:27:09;100526.53;;;11.02;81.90
71109;BME280;59614;51.012;-1.648;2023-04-27T10:32:06;100532.00;;;11.42;80.92
71109;BME280;59614;51.012;-1.648;2023-04-27T10:34:34;100537.06;;;11.03;82.04
71109;BME280;59614;51.012;-1.648;2023-04-27T10:37:10;100538.59;;;11.15;82.53
71109;BME280;59614;51.012;-1.648;2023-04-27T10:39:38;100536.59;;;11.31;81.98
71109;BME280;59614;51.012;-1.648;2023-04-27T10:42:04;100549.97;;;11.20;82.75
71109;BME280;59614;51.012;-1.648;2023-04-27T10:44:32;100553.47;;;11.21;82.77
71109;BME280;59614;51.012;-1.648;2023-04-27T10:46:59;100554.41;;;11.18;82.60
71109;BME280;59614;51.012;-1.648;2023-04-27T10:49:29;100544.88;;;11.09;82.63
71109;BME280;59614;51.012;-1.648;2023-04-27T10:51:57;100547.38;;;11.17;82.54
71109;BME280;59614;51.012;-1.648;2023-04-27T10:54:28;100550.38;;;10.95;83.44
71109;BME280;59614;51.012;-1.648;2023-04-27T10:57:02;100543.97;;;11.12;83.29
71109;BME280;59614;51.012;-1.648;2023-04-27T10:59:28;100544.09;;;11.54;82.33
71109;BME280;59614;51.012;-1.648;2023-04-27T11:01:53;100538.97;;;11.92;80.31
71109;BME280;59614;51.012;-1.648;2023-04-27T11:04:18;100543.72;;;11.74;80.41
71109;BME280;59614;51.012;-1.648;2023-04-27T11:06:44;100541.88;;;11.30;82.04
71109;BME280;59614;51.012;-1.648;2023-04-27T11:09:11;100536.34;;;11.45;82.18
71109;BME280;59614;51.012;-1.648;2023-04-27T11:11:37;100536.38;;;11.42;81.54
71109;BME280;59614;51.012;-1.648;2023-04-27T11:14:02;100520.84;;;11.72;81.46
71109;BME280;59614;51.012;-1.648;2023-04-27T11:16:29;100513.09;;;12.08;80.35
71109;BME280;59614;51.012;-1.648;2023-04-27T11:18:54;100521.13;;;12.44;79.15
71109;BME280;59614;51.012;-1.648;2023-04-27T11:21:21;100492.09;;;12.00;80.25
71109;BME280;59614;51.012;-1.648;2023-04-27T11:23:47;100483.28;;;12.39;79.77
71109;BME280;59614;51.012;-1.648;2023-04-27T11:28:44;100488.75;;;12.33;79.04
71109;BME280;59614;51.012;-1.648;2023-04-27T11:31:21;100475.44;;;11.94;79.65
71109;BME280;59614;51.012;-1.648;2023-04-27T11:33:47;100471.53;;;12.13;79.60
71109;BME280;59614;51.012;-1.648;2023-04-27T11:36:17;100463.94;;;11.96;80.54
71109;BME280;59614;51.012;-1.648;2023-04-27T11:38:43;100456.38;;;11.79;80.70
71109;BME280;59614;51.012;-1.648;2023-04-27T11:41:09;100456.50;;;12.15;80.06
71109;BME280;59614;51.012;-1.648;2023-04-27T11:43:36;100452.19;;;11.67;80.02
71109;BME280;59614;51.012;-1.648;2023-04-27T11:46:04;100449.28;;;11.81;81.23
71109;BME280;59614;51.012;-1.648;2023-04-27T11:48:34;100449.44;;;11.72;80.69
71109;BME280;59614;51.012;-1.648;2023-04-27T11:51:01;100456.81;;;12.41;78.84
71109;BME280;59614;51.012;-1.648;2023-04-27T11:53:35;100458.31;;;12.12;79.05
71109;BME280;59614;51.012;-1.648;2023-04-27T11:56:02;100454.28;;;11.94;79.32
71109;BME280;59614;51.012;-1.648;2023-04-27T11:58:36;100439.25;;;11.97;79.90
71109;BME280;59614;51.012;-1.648;2023-04-27T12:01:03;100429.38;;;12.43;78.94
71109;BME280;59614;51.012;-1.648;2023-04-27T12:03:28;100435.66;;;12.39;79.47
71109;BME280;59614;51.012;-1.648;2023-04-27T12:05:55;100433.94;;;11.99;79.71
71109;BME280;59614;51.012;-1.648;2023-04-27T12:08:21;100431.88;;;12.12;79.95
71109;BME280;59614;51.012;-1.648;2023-04-27T12:10:47;100437.50;;;12.37;79.41
71109;BME280;59614;51.012;-1.648;2023-04-27T12:13:13;100425.03;;;12.03;80.08
71109;BME280;59614;51.012;-1.648;2023-04-27T12:15:39;100422.25;;;11.65;80.32
71109;BME280;59614;51.012;-1.648;2023-04-27T12:18:05;100423.84;;;11.76;80.33
71109;BME280;59614;51.012;-1.648;2023-04-27T12:20:30;100413.63;;;12.01;80.76
71109;BME280;59614;51.012;-1.648;2023-04-27T12:22:56;100415.41;;;11.56;80.98
71109;BME280;59614;51.012;-1.648;2023-04-27T12:25:22;100410.19;;;11.53;81.66
71109;BME280;59614;51.012;-1.648;2023-04-27T12:27:48;100410.00;;;11.63;81.32
71109;BME280;59614;51.012;-1.648;2023-04-27T12:30:14;100415.38;;;11.58;81.79
71109;BME280;59614;51.012;-1.648;2023-04-27T12:32:40;100427.19;;;11.40;82.36
71109;BME280;59614;51.012;-1.648;2023-04-27T12:35:08;100418.28;;;11.46;82.22
71109;BME280;59614;51.012;-1.648;2023-04-27T12:37:35;100408.63;;;11.85;81.26
71109;BME280;59614;51.012;-1.648;2023-04-27T12:40:00;100408.44;;;11.54;81.28
71109;BME280;59614;51.012;-1.648;2023-04-27T12:42:26;100408.16;;;11.66;81.48
71109;BME280;59614;51.012;-1.648;2023-04-27T12:44:52;100396.09;;;11.94;81.50
71109;BME280;59614;51.012;-1.648;2023-04-27T12:47:19;100402.00;;;11.66;81.22
71109;BME280;59614;51.012;-1.648;2023-04-27T12:49:45;100408.03;;;11.71;82.41
71109;BME280;59614;51.012;-1.648;2023-04-27T12:52:11;100416.63;;;11.40;83.37
71109;BME280;59614;51.012;-1.648;2023-04-27T12:54:37;100413.31;;;11.28;84.92
71109;BME280;59614;51.012;-1.648;2023-04-27T12:57:02;100409.44;;;11.48;84.61